createdAt,value
2022-11-02T00:00:29.158Z,1.87
2022-11-02T00:02:56.297Z,1.52
2022-11-02T00:05:25.814Z,1.60
2022-11-02T00:07:54.264Z,1.38
2022-11-02T00:10:24.847Z,1.40
2022-11-02T00:12:52.554Z,1.45
2022-11-02T00:15:19.751Z,1.73
2022-11-02T00:17:54.852Z,1.50
2022-11-02T00:20:22.039Z,1.88
2022-11-02T00:22:52.179Z,1.40
2022-11-02T00:25:23.249Z,1.30
2022-11-02T00:27:50.010Z,1.47
2022-11-02T00:30:17.500Z,1.10
2022-11-02T00:32:44.286Z,1.60
2022-11-02T00:35:11.151Z,1.67
2022-11-02T00:37:38.088Z,1.40
2022-11-02T00:40:06.146Z,1.52
2022-11-02T00:42:32.867Z,2.42
2022-11-02T00:44:59.577Z,1.73
2022-11-02T00:47:26.274Z,1.23
2022-11-02T00:49:52.972Z,1.40
2022-11-02T00:52:19.683Z,1.85
2022-11-02T00:54:46.780Z,1.52
2022-11-02T00:57:13.496Z,1.67
2022-11-02T00:59:40.201Z,1.92
2022-11-02T01:02:07.101Z,1.45
2022-11-02T01:04:33.878Z,1.30
2022-11-02T01:07:02.107Z,2.22
2022-11-02T01:09:28.888Z,1.48
2022-11-02T01:11:55.646Z,1.50
2022-11-02T01:14:22.550Z,1.58
2022-11-02T01:16:49.628Z,1.50
2022-11-02T01:19:16.325Z,2.00
2022-11-02T01:21:43.028Z,1.45
2022-11-02T01:24:09.773Z,1.27
2022-11-02T01:26:36.540Z,1.38
2022-11-02T01:29:03.428Z,1.73
2022-11-02T01:31:30.208Z,1.55
2022-11-02T01:33:56.898Z,1.58
2022-11-02T01:36:23.912Z,1.67
2022-11-02T01:38:50.889Z,1.40
2022-11-02T01:41:18.376Z,1.75
2022-11-02T01:43:47.242Z,1.42
2022-11-02T01:46:22.912Z,2.25
2022-11-02T01:49:05.984Z,2.03
2022-11-02T01:51:36.442Z,1.58
2022-11-02T01:54:09.789Z,2.28
2022-11-02T01:56:38.327Z,1.92
2022-11-02T01:59:11.117Z,1.60
2022-11-02T02:01:38.420Z,1.92
2022-11-02T02:04:05.520Z,1.40
2022-11-02T02:06:33.142Z,1.30
2022-11-02T02:09:04.737Z,1.40
2022-11-02T02:11:39.581Z,1.33
2022-11-02T02:14:14.435Z,1.73
2022-11-02T02:16:52.589Z,1.90
2022-11-02T02:19:40.932Z,1.77
2022-11-02T02:22:47.495Z,1.50
2022-11-02T02:25:50.532Z,1.77
2022-11-02T02:28:56.750Z,1.63
2022-11-02T02:31:38.376Z,1.35
2022-11-02T02:34:19.416Z,2.10
2022-11-02T02:36:58.814Z,1.45
2022-11-02T02:39:51.476Z,1.65
2022-11-02T02:42:48.458Z,1.58
2022-11-02T02:45:27.510Z,1.67
2022-11-02T02:48:12.004Z,1.85
2022-11-02T02:50:56.012Z,2.15
2022-11-02T02:53:40.642Z,1.40
2022-11-02T02:56:09.513Z,1.63
2022-11-02T02:58:56.859Z,1.40
2022-11-02T03:01:24.689Z,2.42
2022-11-02T03:03:51.499Z,1.35
2022-11-02T03:06:34.297Z,1.48
2022-11-02T03:09:49.334Z,2.13
2022-11-02T03:12:24.830Z,1.25
2022-11-02T03:15:11.151Z,1.52
2022-11-02T03:18:08.118Z,1.83
2022-11-02T03:21:02.679Z,1.45
2022-11-02T03:24:17.187Z,1.60
2022-11-02T03:27:06.908Z,1.40
2022-11-02T03:29:38.932Z,1.50
2022-11-02T03:34:39.538Z,1.60
2022-11-02T03:37:35.305Z,1.30
2022-11-02T03:40:14.857Z,1.60
2022-11-02T03:42:43.240Z,1.63
2022-11-02T03:45:19.917Z,1.88
2022-11-02T03:47:53.931Z,1.40
2022-11-02T03:50:23.391Z,1.55
2022-11-02T03:52:58.401Z,1.95
2022-11-02T03:55:36.702Z,1.35
2022-11-02T03:58:03.695Z,1.13
2022-11-02T04:00:34.560Z,1.45
2022-11-02T04:03:04.096Z,1.20
2022-11-02T04:05:34.097Z,1.65
2022-11-02T04:08:20.474Z,1.40
2022-11-02T04:11:07.137Z,1.77
2022-11-02T04:13:52.879Z,1.20
2022-11-02T04:16:25.115Z,1.40
2022-11-02T04:19:13.615Z,1.65
2022-11-02T04:21:41.229Z,2.17
2022-11-02T04:24:27.421Z,1.40
2022-11-02T04:26:54.128Z,1.60
2022-11-02T04:29:20.838Z,1.40
2022-11-02T04:31:47.553Z,1.50
2022-11-02T04:34:14.249Z,1.50
2022-11-02T04:36:41.206Z,1.98
2022-11-02T04:39:07.915Z,1.60
2022-11-02T04:41:43.512Z,1.67
2022-11-02T04:44:14.556Z,1.13
2022-11-02T04:46:43.486Z,1.63
2022-11-02T04:49:11.670Z,1.85
2022-11-02T04:51:41.691Z,1.35
2022-11-02T04:54:10.118Z,1.52
2022-11-02T04:56:36.848Z,1.60
2022-11-02T04:59:03.614Z,1.50
2022-11-02T05:01:30.750Z,1.63
2022-11-02T05:03:57.814Z,1.40
2022-11-02T05:06:25.246Z,1.40
2022-11-02T05:08:52.207Z,1.58
2022-11-02T05:11:19.181Z,2.00
2022-11-02T05:13:46.396Z,1.92
2022-11-02T05:16:17.260Z,1.75
2022-11-02T05:18:44.191Z,1.27
2022-11-02T05:21:12.352Z,1.60
2022-11-02T05:23:39.571Z,1.67
2022-11-02T05:26:11.947Z,2.15
2022-11-02T05:28:39.044Z,2.08
2022-11-02T05:31:06.125Z,1.95
2022-11-02T05:33:33.329Z,1.70
2022-11-02T05:36:00.341Z,2.15
2022-11-02T05:38:27.869Z,1.73
2022-11-02T06:04:03.943Z,1.40
2022-11-02T06:06:30.738Z,1.38
2022-11-02T06:08:58.292Z,1.85
2022-11-02T06:11:27.379Z,1.48
2022-11-02T06:13:54.139Z,1.90
2022-11-02T06:16:23.216Z,2.03
2022-11-02T06:18:50.438Z,1.40
2022-11-02T06:21:17.344Z,1.23
2022-11-02T06:23:46.873Z,1.83
2022-11-02T06:26:13.582Z,1.75
2022-11-02T06:28:40.389Z,1.75
2022-11-02T06:31:07.104Z,1.98
2022-11-02T06:33:33.831Z,1.60
2022-11-02T06:36:00.549Z,2.05
2022-11-02T06:38:27.283Z,1.58
2022-11-02T06:41:00.083Z,1.83
2022-11-02T06:43:26.831Z,1.63
2022-11-02T06:45:58.294Z,2.25
2022-11-02T06:48:33.084Z,2.10
2022-11-02T06:51:02.129Z,1.77
2022-11-02T06:53:28.994Z,1.75
2022-11-02T06:55:57.853Z,1.83
2022-11-02T06:58:25.254Z,1.65
2022-11-02T07:01:02.505Z,1.77
2022-11-02T07:03:30.367Z,1.63
2022-11-02T07:05:58.030Z,1.63
2022-11-02T07:08:25.394Z,1.85
2022-11-02T07:10:52.169Z,1.95
2022-11-02T07:13:19.472Z,1.90
2022-11-02T07:15:46.354Z,1.73
2022-11-02T07:18:13.846Z,2.28
2022-11-02T07:20:40.576Z,2.25
2022-11-02T07:23:08.716Z,1.67
2022-11-02T07:25:35.938Z,1.83
2022-11-02T07:28:03.711Z,1.77
2022-11-02T07:30:32.863Z,1.40
2022-11-02T07:32:59.627Z,2.17
2022-11-02T07:35:26.810Z,2.28
2022-11-02T07:38:02.233Z,1.40
2022-11-02T07:40:30.225Z,1.92
2022-11-02T07:42:59.095Z,2.00
2022-11-02T07:45:25.952Z,2.25
2022-11-02T07:47:52.755Z,1.80
2022-11-02T07:50:23.343Z,2.10
2022-11-02T07:52:56.106Z,2.35
2022-11-02T07:55:32.916Z,2.47
2022-11-02T07:58:08.239Z,1.92
2022-11-02T08:00:38.264Z,1.63
2022-11-02T08:03:07.731Z,2.50
2022-11-02T08:05:41.156Z,1.75
2022-11-02T08:08:15.165Z,1.67
2022-11-02T08:10:42.959Z,2.63
2022-11-02T08:13:13.706Z,2.30
2022-11-02T08:15:40.554Z,1.67
2022-11-02T08:18:17.192Z,1.60
2022-11-02T08:20:45.774Z,2.33
2022-11-02T08:23:12.913Z,2.40
2022-11-02T08:25:40.945Z,1.98
2022-11-02T08:28:13.478Z,2.50
2022-11-02T08:30:40.200Z,2.17
2022-11-02T08:33:13.190Z,1.98
2022-11-02T08:35:40.513Z,2.17
2022-11-02T08:38:09.574Z,2.67
2022-11-02T08:40:37.255Z,2.08
2022-11-02T08:43:10.303Z,2.40
2022-11-02T08:46:12.764Z,2.38
2022-11-02T08:48:27.403Z,2.00
2022-11-02T08:50:55.614Z,2.65
2022-11-02T08:53:22.596Z,2.50
2022-11-02T08:55:49.339Z,2.42
2022-11-02T08:58:16.221Z,2.83
2022-11-02T09:00:43.040Z,2.40
2022-11-02T09:03:13.540Z,2.53
2022-11-02T09:05:46.076Z,2.78
2022-11-02T09:08:20.690Z,2.55
2022-11-02T09:10:52.304Z,2.15
2022-11-02T09:13:25.241Z,2.95
2022-11-02T09:15:54.796Z,2.35
2022-11-02T09:18:22.825Z,1.98
2022-11-02T09:20:50.232Z,2.20
2022-11-02T09:23:18.835Z,2.20
2022-11-02T09:25:45.644Z,2.10
2022-11-02T09:28:13.066Z,2.22
2022-11-02T09:30:39.782Z,2.20
2022-11-02T09:33:07.749Z,1.85
2022-11-02T09:35:39.832Z,2.25
2022-11-02T09:38:06.844Z,2.28
2022-11-02T09:41:02.275Z,2.47
2022-11-02T09:44:05.814Z,2.50
2022-11-02T09:46:39.935Z,2.03
2022-11-02T09:49:14.911Z,2.15
2022-11-02T09:51:55.352Z,2.33
2022-11-02T09:54:32.815Z,2.33
2022-11-02T09:57:09.538Z,2.20
2022-11-02T09:59:36.486Z,2.10
2022-11-02T10:02:29.328Z,1.98
2022-11-02T10:05:20.591Z,2.35
2022-11-02T10:08:34.133Z,2.42
2022-11-02T10:11:32.859Z,2.15
2022-11-02T10:14:31.790Z,1.70
2022-11-02T10:17:13.073Z,2.17
2022-11-02T10:19:42.182Z,2.25
2022-11-02T10:22:13.201Z,1.50
2022-11-02T10:24:45.822Z,2.08
2022-11-02T10:27:36.318Z,2.10
2022-11-02T10:30:18.401Z,1.77
2022-11-02T10:32:48.069Z,2.15
2022-11-02T10:36:17.309Z,1.67
2022-11-02T10:39:09.661Z,2.22
2022-11-02T10:41:54.363Z,2.35
2022-11-02T10:44:47.597Z,2.05
2022-11-02T10:47:19.052Z,1.95
2022-11-02T10:50:49.014Z,2.25
2022-11-02T10:53:39.971Z,2.13
2022-11-02T10:56:15.560Z,2.00
2022-11-02T10:58:55.751Z,1.73
2022-11-02T11:01:22.593Z,1.58
2022-11-02T11:03:59.298Z,2.13
2022-11-02T11:06:39.279Z,1.65
2022-11-02T11:09:16.951Z,1.60
2022-11-02T11:12:20.760Z,1.83
2022-11-02T11:20:39.301Z,1.67
2022-11-02T11:23:20.652Z,1.95
2022-11-02T11:26:06.099Z,1.65
2022-11-02T11:28:54.237Z,2.00
2022-11-02T11:31:21.698Z,1.70
2022-11-02T11:33:51.995Z,1.85
2022-11-02T11:36:34.539Z,2.30
2022-11-02T11:39:16.946Z,2.53
2022-11-02T11:41:43.714Z,1.88
2022-11-02T11:44:14.782Z,1.80
2022-11-02T11:46:55.365Z,2.17
2022-11-02T11:49:41.955Z,1.88
2022-11-02T11:52:32.284Z,1.73
2022-11-02T11:55:25.645Z,1.50
2022-11-02T11:58:23.297Z,2.08
2022-11-02T12:01:09.341Z,2.15
2022-11-02T12:04:00.335Z,2.00
2022-11-02T12:06:54.191Z,1.95
2022-11-02T12:10:02.859Z,1.70
2022-11-02T12:12:49.547Z,1.90
2022-11-02T12:15:35.010Z,2.05
2022-11-02T12:18:28.416Z,2.20
2022-11-02T12:21:03.951Z,1.80
2022-11-02T12:23:47.737Z,2.42
2022-11-02T12:26:29.241Z,2.08
2022-11-02T12:29:13.863Z,2.15
2022-11-02T12:31:44.701Z,1.92
2022-11-02T12:35:08.732Z,2.17
2022-11-02T12:38:20.010Z,2.03
2022-11-02T12:41:02.691Z,1.88
2022-11-02T12:43:50.776Z,1.73
2022-11-02T12:46:47.589Z,1.60
2022-11-02T12:50:03.849Z,2.00
2022-11-02T12:52:54.175Z,2.28
2022-11-02T12:55:44.227Z,1.95
2022-11-02T12:58:40.947Z,1.90
2022-11-02T13:01:25.083Z,2.20
2022-11-02T13:04:25.897Z,2.17
2022-11-02T13:07:05.345Z,2.50
2022-11-02T13:09:38.626Z,2.42
2022-11-02T13:12:15.418Z,2.00
2022-11-02T13:14:52.193Z,1.90
2022-11-02T13:17:40.930Z,1.80
2022-11-02T13:20:27.396Z,1.90
2022-11-02T13:23:08.140Z,2.28
2022-11-02T13:25:42.445Z,1.70
2022-11-02T13:28:24.390Z,1.40
2022-11-02T13:30:52.067Z,1.58
2022-11-02T13:33:30.854Z,1.63
2022-11-02T13:35:57.608Z,2.35
2022-11-02T13:39:23.694Z,2.08
2022-11-02T13:42:31.529Z,1.75
2022-11-02T13:45:28.702Z,1.85
2022-11-02T13:48:30.365Z,1.42
2022-11-02T13:51:04.930Z,1.58
2022-11-02T13:53:39.483Z,1.52
2022-11-02T13:56:11.934Z,1.77
2022-11-02T13:58:58.234Z,1.48
2022-11-02T14:01:27.497Z,1.77
2022-11-02T14:04:01.887Z,1.95
2022-11-02T14:06:33.204Z,1.63
2022-11-02T14:09:04.540Z,1.80
2022-11-02T14:11:40.007Z,2.33
2022-11-02T14:14:18.341Z,1.70
2022-11-02T14:16:51.278Z,1.92
2022-11-02T14:19:19.319Z,1.90
2022-11-02T14:21:52.668Z,1.25
2022-11-02T14:24:34.919Z,1.33
2022-11-02T14:27:13.904Z,1.60
2022-11-02T14:29:46.846Z,1.50
2022-11-02T14:32:58.397Z,1.40
2022-11-02T14:35:41.193Z,1.20
2022-11-02T14:38:38.821Z,1.25
2022-11-02T14:41:32.812Z,1.40
2022-11-02T14:44:16.521Z,1.30
2022-11-02T14:46:58.895Z,1.30
2022-11-02T14:49:37.054Z,1.58
2022-11-02T14:52:28.133Z,1.90
2022-11-02T14:55:22.895Z,1.58
2022-11-02T14:58:20.094Z,1.55
2022-11-02T15:00:49.907Z,1.45
2022-11-02T15:03:25.914Z,1.50
2022-11-02T15:06:13.410Z,1.55
2022-11-02T15:08:56.623Z,1.20
2022-11-02T15:11:42.221Z,1.40
2022-11-02T15:14:39.909Z,1.27
2022-11-02T15:17:15.713Z,1.50
2022-11-02T15:19:50.362Z,1.90
2022-11-02T15:22:36.973Z,1.27
2022-11-02T15:25:18.546Z,1.33
2022-11-02T15:27:46.385Z,1.08
2022-11-02T15:30:28.066Z,1.38
2022-11-02T15:35:37.744Z,1.10
2022-11-02T15:38:27.936Z,1.40
2022-11-02T15:41:44.247Z,1.30
2022-11-02T15:45:14.151Z,1.42
2022-11-02T15:48:09.392Z,1.65
2022-11-02T15:50:57.570Z,1.35
2022-11-02T15:53:37.228Z,1.38
2022-11-02T15:56:26.926Z,1.35
2022-11-02T15:59:17.526Z,1.73
2022-11-02T16:01:44.381Z,1.20
2022-11-02T16:04:20.290Z,1.40
2022-11-02T16:06:47.563Z,1.30
2022-11-02T16:09:33.562Z,1.60
2022-11-02T16:12:09.077Z,1.10
2022-11-02T16:14:35.816Z,1.25
2022-11-02T16:17:02.544Z,1.45
2022-11-02T16:19:29.273Z,1.40
2022-11-02T16:22:00.987Z,1.17
2022-11-02T16:24:29.080Z,1.10
2022-11-02T16:26:55.982Z,1.23
2022-11-02T16:29:30.530Z,1.50
2022-11-02T16:31:57.942Z,1.10
2022-11-02T16:34:30.483Z,1.48
2022-11-02T16:36:59.024Z,1.40
2022-11-02T16:39:30.357Z,1.20
2022-11-02T16:42:00.821Z,1.60
2022-11-02T16:44:32.182Z,1.33
2022-11-02T16:47:08.285Z,1.40
2022-11-02T16:49:55.218Z,1.48
2022-11-02T16:52:23.929Z,1.40
2022-11-02T16:54:50.677Z,1.33
2022-11-02T16:57:44.728Z,1.45
2022-11-02T17:00:20.936Z,1.00
2022-11-02T17:02:48.181Z,1.13
2022-11-02T17:05:24.982Z,1.40
2022-11-02T17:08:09.799Z,0.93
2022-11-02T17:10:38.344Z,1.00
2022-11-02T17:13:20.271Z,1.30
2022-11-02T17:15:50.062Z,0.85
2022-11-02T17:18:22.677Z,1.25
2022-11-02T17:21:16.734Z,1.00
2022-11-02T17:23:47.094Z,1.00
2022-11-02T17:26:23.161Z,1.00
2022-11-02T17:28:55.299Z,1.17
2022-11-02T17:33:51.220Z,1.08
2022-11-02T17:36:18.569Z,1.35
2022-11-02T17:38:45.465Z,1.40
2022-11-02T17:41:37.003Z,1.30
2022-11-02T17:44:04.580Z,1.40
2022-11-02T17:46:31.789Z,1.90
2022-11-02T17:48:58.530Z,1.75
2022-11-02T17:51:25.736Z,1.50
2022-11-02T17:53:52.811Z,1.38
2022-11-02T17:56:19.538Z,1.40
2022-11-02T17:58:46.389Z,1.15
2022-11-02T18:01:14.115Z,1.65
2022-11-02T18:03:41.013Z,1.20
2022-11-02T18:06:08.143Z,1.10
2022-11-02T18:08:54.926Z,1.25
2022-11-02T18:11:26.074Z,1.35
2022-11-02T18:13:53.507Z,1.55
2022-11-02T18:16:20.286Z,1.50
2022-11-02T18:18:47.006Z,1.88
2022-11-02T18:21:13.806Z,1.63
2022-11-02T18:23:41.450Z,1.33
2022-11-02T18:26:11.917Z,1.17
2022-11-02T18:28:39.101Z,1.60
2022-11-02T18:31:07.411Z,1.42
2022-11-02T18:33:34.480Z,1.35
2022-11-02T18:36:07.155Z,1.40
2022-11-02T18:38:34.636Z,0.93
2022-11-02T18:41:27.315Z,1.30
2022-11-02T18:44:04.109Z,1.20
2022-11-02T18:46:32.659Z,1.73
2022-11-02T18:48:59.629Z,1.67
2022-11-02T18:51:26.939Z,1.75
2022-11-02T18:53:58.620Z,1.48
2022-11-02T18:56:25.676Z,1.73
2022-11-02T18:58:54.300Z,1.55
2022-11-02T19:01:22.916Z,1.50
2022-11-02T19:03:52.690Z,1.45
2022-11-02T19:06:39.343Z,1.45
2022-11-02T19:09:20.071Z,1.75
2022-11-02T19:11:53.622Z,1.27
2022-11-02T19:14:22.043Z,1.52
2022-11-02T19:16:49.457Z,1.77
2022-11-02T19:19:16.270Z,1.60
2022-11-02T19:21:43.146Z,1.35
2022-11-02T19:24:09.893Z,1.60
2022-11-02T19:26:37.684Z,1.67
2022-11-02T19:29:06.492Z,1.45
2022-11-02T19:31:34.834Z,1.65
2022-11-02T19:34:01.892Z,1.70
2022-11-02T19:36:28.622Z,1.42
2022-11-02T19:38:55.530Z,2.05
2022-11-02T19:41:23.629Z,1.52
2022-11-02T19:43:50.908Z,1.52
2022-11-02T19:46:20.806Z,1.77
2022-11-02T19:48:47.971Z,1.48
2022-11-02T19:51:23.352Z,1.30
2022-11-02T19:53:52.759Z,1.67
2022-11-02T19:56:22.153Z,1.98
2022-11-02T19:58:51.223Z,2.05
2022-11-02T20:01:27.127Z,1.63
2022-11-02T20:03:55.327Z,1.20
2022-11-02T20:06:28.713Z,1.70
2022-11-02T20:08:58.213Z,1.63
2022-11-02T20:11:29.528Z,1.40
2022-11-02T20:13:59.109Z,1.58
2022-11-02T20:16:26.501Z,1.52
2022-11-02T20:18:54.510Z,1.23
2022-11-02T20:21:32.433Z,1.42
2022-11-02T20:24:01.494Z,1.77
2022-11-02T20:26:34.965Z,1.55
2022-11-02T20:29:04.446Z,1.83
2022-11-02T20:31:37.866Z,1.60
2022-11-02T20:34:07.442Z,2.17
2022-11-02T20:36:34.783Z,1.52
2022-11-02T20:39:04.547Z,1.88
2022-11-02T20:41:31.387Z,1.45
2022-11-02T20:43:58.117Z,1.90
2022-11-02T20:46:40.716Z,1.60
2022-11-02T20:49:21.226Z,1.80
2022-11-02T20:51:50.839Z,2.03
2022-11-02T20:54:19.226Z,1.27
2022-11-02T20:56:46.153Z,1.70
2022-11-02T20:59:12.903Z,1.55
2022-11-02T21:01:39.848Z,1.80
2022-11-02T21:04:06.958Z,1.73
2022-11-02T21:06:33.843Z,1.50
2022-11-02T21:09:00.871Z,2.05
2022-11-02T21:11:46.074Z,1.63
2022-11-02T21:14:12.781Z,1.58
2022-11-02T21:16:39.485Z,1.90
2022-11-02T21:19:06.649Z,1.23
2022-11-02T21:21:33.626Z,1.65
2022-11-02T21:24:00.388Z,1.85
2022-11-02T21:26:27.296Z,1.65
2022-11-02T21:28:54.533Z,1.52
2022-11-02T21:31:21.776Z,1.30
2022-11-02T21:33:49.820Z,1.50
2022-11-02T21:36:17.924Z,2.00
2022-11-02T21:38:45.465Z,1.60
2022-11-02T21:41:25.721Z,1.88
2022-11-02T21:43:55.361Z,2.00
2022-11-02T21:46:24.013Z,2.05
2022-11-02T21:48:50.756Z,1.98
2022-11-02T21:51:20.746Z,2.10
2022-11-02T21:53:50.014Z,1.95
2022-11-02T21:56:20.927Z,2.05
2022-11-02T21:58:48.302Z,1.95
2022-11-02T22:01:38.018Z,2.00
2022-11-02T22:04:06.209Z,1.95
2022-11-02T22:06:33.386Z,1.98
2022-11-02T22:09:01.508Z,2.30
2022-11-02T22:11:28.726Z,1.90
2022-11-02T22:13:58.495Z,2.38
2022-11-02T22:16:35.067Z,1.75
2022-11-02T22:19:08.304Z,1.95
2022-11-02T22:21:39.251Z,1.80
2022-11-02T22:24:07.320Z,2.10
2022-11-02T22:26:36.240Z,2.17
2022-11-02T22:29:04.183Z,1.98
2022-11-02T22:31:34.247Z,1.58
2022-11-02T22:34:03.819Z,1.67
2022-11-02T22:36:33.232Z,1.75
2022-11-02T22:39:01.683Z,1.90
2022-11-02T22:41:39.396Z,1.70
2022-11-02T22:44:17.395Z,1.75
2022-11-02T22:46:47.122Z,1.98
2022-11-02T22:49:15.746Z,1.52
2022-11-02T22:51:46.324Z,1.85
2022-11-02T22:54:16.025Z,2.65
2022-11-02T22:56:44.534Z,2.40
2022-11-02T22:59:11.303Z,2.10
2022-11-02T23:01:38.994Z,2.33
2022-11-02T23:04:06.778Z,2.40
2022-11-02T23:06:34.852Z,2.35
2022-11-02T23:09:02.146Z,2.85
2022-11-02T23:11:36.541Z,2.15
2022-11-02T23:14:11.763Z,2.08
2022-11-02T23:16:46.832Z,2.17
2022-11-02T23:19:30.659Z,2.33
2022-11-02T23:22:30.588Z,2.60
2022-11-02T23:25:13.793Z,2.25
2022-11-02T23:28:05.428Z,1.83
2022-11-02T23:30:55.851Z,1.98
2022-11-02T23:33:24.862Z,2.10
2022-11-02T23:36:09.963Z,2.13
2022-11-02T23:38:56.285Z,2.22
2022-11-02T23:41:23.027Z,2.38
2022-11-02T23:43:49.802Z,2.47
2022-11-02T23:46:17.499Z,2.00
2022-11-02T23:48:47.154Z,2.25
2022-11-02T23:51:34.867Z,2.42
2022-11-02T23:54:19.997Z,2.35
2022-11-02T23:56:46.775Z,2.55
2022-11-02T23:59:16.224Z,2.30
